South Vineland, New Jersey
Current Conditions -  °F | °C
As of 4:54 PM on Sunday 25 Jan 2015 (Local Time) from KMIV Reporting Station
Overcast Overcast  
Wind Chill: 46°   Ceiling: 4700
Heat Index: 46°   Visibility: 10mi
Dew Point: 32°   Wind: 0mph
Humidity: 58%   Direction: NA
Pressure: 29.84"   Gusts: NA
Location:  39.5016°N, 75.0264°W
Report Text: KMIV 252154Z AUTO 00000KT 10SM OVC047 08/00 A2984 RMK AO2 SLP104 T00780000
Loading
Personal Weather Stations






























Interactive Weather Map New forecast layout! Learn more

10-Day Weather Forecast

Advertisements
Track Severe Weather on mobile